Arabi, Georgia
Current Conditions -  °F | °C
As of 12:55 AM on Tuesday 27 Jan 2015 (Local Time) from KCKF Reporting Station
Overcast Overcast  
Wind Chill: 35°   Ceiling: 7500
Heat Index: 38°   Visibility: 10mi
Dew Point: 35°   Wind: 5mph
Humidity: 89%   Direction: 270°W
Pressure: 29.99"   Gusts: NA
Location:  31.83°N, 83.74°W
Report Text: KCKF 270555Z AUTO 27004KT 10SM BKN075 OVC100 03/02 A2999 RMK AO2 T00340017 10077 20025 401110025
Loading
Personal Weather Stations






























Interactive Weather Map New forecast layout! Learn more

10-Day Weather Forecast

Advertisements
Track Severe Weather on mobile